Stevens Creek, Virginia
Current Conditions -  °F | °C
As of 6:15 AM on Wednesday 22 Oct 2014 (Local Time) from KHLX Reporting Station
Overcast Overcast  
Wind Chill: 34°   Ceiling: 2300
Heat Index: 42°   Visibility: 10mi
Dew Point: 35°   Wind: 16mph
Humidity: 76%   Direction: 320°NW
Pressure: 30.02"   Gusts: 24mph
Location:  36.7333°N, 81.0291°W
Report Text: KHLX 221015Z AUTO 32014G21KT 10SM BKN023 OVC028 06/02 A3002 RMK AO2 T00560017
Loading
Personal Weather Stations






























Interactive Weather Map
Tropical Storm Tracking
New forecast layout! Learn more

10-Day Weather Forecast

Advertisements
Track Severe Weather on mobile